createdAt,value
2022-11-04T00:00:19.467Z,12.50
2022-11-04T00:03:01.891Z,10.90
2022-11-04T00:05:30.457Z,11.90
2022-11-04T00:08:17.137Z,11.70
2022-11-04T00:11:03.963Z,11.00
2022-11-04T00:13:31.887Z,10.40
2022-11-04T00:16:21.544Z,11.10
2022-11-04T00:18:49.534Z,12.20
2022-11-04T00:21:36.107Z,10.60
2022-11-04T00:24:25.041Z,10.60
2022-11-04T00:27:11.748Z,12.20
2022-11-04T00:29:40.604Z,11.70
2022-11-04T00:32:27.200Z,11.70
2022-11-04T00:34:56.150Z,12.70
2022-11-04T00:37:23.924Z,11.90
2022-11-04T00:39:51.648Z,10.60
2022-11-04T00:42:19.371Z,12.50
2022-11-04T00:44:47.084Z,9.90
2022-11-04T00:47:15.040Z,9.40
2022-11-04T00:49:42.744Z,9.10
2022-11-04T00:52:10.719Z,9.10
2022-11-04T00:54:38.444Z,8.20
2022-11-04T00:57:10.265Z,8.40
2022-11-04T00:59:40.698Z,7.90
2022-11-04T01:02:10.450Z,7.80
2022-11-04T01:04:38.649Z,8.20
2022-11-04T01:07:07.592Z,8.50
2022-11-04T01:09:35.620Z,8.40
2022-11-04T01:12:04.679Z,9.00
2022-11-04T01:14:32.740Z,8.10
2022-11-04T01:17:00.686Z,7.90
2022-11-04T01:19:28.428Z,8.00
2022-11-04T01:21:56.153Z,8.60
2022-11-04T01:24:23.881Z,9.40
2022-11-04T01:26:52.116Z,8.60
2022-11-04T01:29:19.855Z,7.60
2022-11-04T01:31:47.781Z,8.00
2022-11-04T01:34:15.795Z,8.60
2022-11-04T01:36:43.717Z,8.60
2022-11-04T01:39:13.551Z,8.40
2022-11-04T01:41:41.618Z,8.70
2022-11-04T01:44:49.403Z,8.60
2022-11-04T01:47:33.320Z,9.70
2022-11-04T01:52:46.767Z,8.70
2022-11-04T01:55:24.687Z,9.70
2022-11-04T01:58:01.827Z,9.30
2022-11-04T02:00:30.934Z,8.90
2022-11-04T02:03:10.820Z,9.40
2022-11-04T02:05:40.928Z,9.80
2022-11-04T02:08:11.809Z,9.10
2022-11-04T02:10:46.041Z,9.50
2022-11-04T02:13:14.042Z,9.10
2022-11-04T02:16:04.959Z,10.00
2022-11-04T02:18:38.898Z,10.20
2022-11-04T02:21:09.608Z,11.30
2022-11-04T02:24:05.697Z,10.20
2022-11-04T02:27:08.387Z,10.90
2022-11-04T02:29:45.718Z,9.10
2022-11-04T02:32:32.222Z,11.00
2022-11-04T02:35:25.240Z,10.40
2022-11-04T02:38:08.184Z,11.70
2022-11-04T02:40:44.020Z,10.50
2022-11-04T02:43:38.479Z,10.70
2022-11-04T02:46:27.609Z,10.80
2022-11-04T02:48:58.668Z,11.20
2022-11-04T02:51:56.964Z,11.00
2022-11-04T02:54:50.392Z,12.10
2022-11-04T02:57:24.530Z,8.10
2022-11-04T03:00:04.093Z,12.70
2022-11-04T03:02:41.863Z,10.90
2022-11-04T03:05:15.938Z,11.20
2022-11-04T03:07:48.644Z,11.60
2022-11-04T03:10:27.393Z,12.30
2022-11-04T03:13:04.058Z,10.50
2022-11-04T03:15:36.113Z,12.10
2022-11-04T03:18:23.157Z,11.60
2022-11-04T03:20:55.923Z,12.20
2022-11-04T03:23:24.798Z,11.80
2022-11-04T03:25:58.596Z,11.40
2022-11-04T03:29:01.095Z,11.60
2022-11-04T03:32:01.226Z,11.10
2022-11-04T03:34:30.417Z,12.20
2022-11-04T03:36:59.634Z,12.70
2022-11-04T03:39:28.642Z,12.00
2022-11-04T03:42:01.297Z,13.10
2022-11-04T03:44:30.768Z,11.80
2022-11-04T03:46:58.786Z,13.10
2022-11-04T03:49:28.119Z,11.00
2022-11-04T03:51:58.134Z,11.50
2022-11-04T03:54:27.101Z,11.70
2022-11-04T03:57:13.998Z,12.20
2022-11-04T04:00:11.272Z,12.70
2022-11-04T04:02:57.003Z,12.20
2022-11-04T04:05:39.753Z,14.00
2022-11-04T04:08:23.939Z,12.90
2022-11-04T04:11:10.340Z,11.00
2022-11-04T04:13:45.433Z,10.90
2022-11-04T04:16:30.479Z,11.10
2022-11-04T04:19:24.547Z,11.20
2022-11-04T04:22:15.542Z,10.20
2022-11-04T04:25:08.166Z,9.90
2022-11-04T04:27:38.658Z,9.80
2022-11-04T04:30:17.963Z,10.30
2022-11-04T04:32:54.436Z,10.60
2022-11-04T04:35:44.165Z,9.60
2022-11-04T04:38:33.707Z,9.70
2022-11-04T04:41:37.160Z,11.30
2022-11-04T04:44:40.139Z,11.20
2022-11-04T04:47:11.804Z,11.10
2022-11-04T04:49:51.114Z,11.20
2022-11-04T04:52:20.816Z,11.00
2022-11-04T04:54:48.561Z,10.90
2022-11-04T04:57:16.466Z,10.40
2022-11-04T04:59:44.219Z,11.20
2022-11-04T05:02:12.357Z,10.00
2022-11-04T05:04:41.359Z,10.90
2022-11-04T05:07:10.917Z,12.10
2022-11-04T05:09:38.886Z,11.50
2022-11-04T05:12:06.643Z,11.10
2022-11-04T05:14:35.073Z,11.20
2022-11-04T05:17:02.848Z,10.00
2022-11-04T05:19:30.554Z,11.00
2022-11-04T05:22:01.298Z,9.60
2022-11-04T05:24:29.258Z,10.40
2022-11-04T05:26:56.979Z,10.10
2022-11-04T05:29:24.736Z,10.50
2022-11-04T05:31:52.692Z,9.80
2022-11-04T05:34:20.416Z,10.20
2022-11-04T05:36:48.121Z,9.60
2022-11-04T05:39:15.926Z,9.40
2022-11-04T05:41:43.890Z,10.20
2022-11-04T05:44:11.692Z,10.30
2022-11-04T05:46:39.666Z,9.80
2022-11-04T05:49:07.585Z,8.80
2022-11-04T05:51:35.341Z,9.50
2022-11-04T05:54:03.352Z,10.90
2022-11-04T05:56:31.103Z,11.30
2022-11-04T05:58:59.053Z,11.90
2022-11-04T06:01:36.917Z,10.30
2022-11-04T06:04:06.890Z,14.40
2022-11-04T06:06:36.843Z,15.50
2022-11-04T06:09:04.846Z,15.70
2022-11-04T06:11:34.523Z,16.20
2022-11-04T06:14:02.226Z,16.70
2022-11-04T06:16:30.131Z,15.40
2022-11-04T06:19:03.375Z,14.20
2022-11-04T06:21:36.227Z,14.30
2022-11-04T06:24:05.373Z,13.10
2022-11-04T06:26:33.096Z,27.00
2022-11-04T06:29:01.074Z,30.10
2022-11-04T06:31:29.834Z,17.60
2022-11-04T06:33:57.760Z,18.40
2022-11-04T06:36:27.777Z,18.50
2022-11-04T06:38:59.952Z,14.80
2022-11-04T06:41:31.903Z,15.20
2022-11-04T06:44:00.092Z,16.00
2022-11-04T06:46:36.934Z,16.30
2022-11-04T06:49:06.960Z,17.00
2022-11-04T06:51:34.766Z,16.00
2022-11-04T06:54:02.760Z,16.30
2022-11-04T06:56:30.493Z,14.60
2022-11-04T06:59:00.133Z,16.00
2022-11-04T07:01:31.633Z,16.50
2022-11-04T07:04:01.298Z,14.50
2022-11-04T07:06:30.323Z,15.80
2022-11-04T07:09:00.738Z,20.90
2022-11-04T07:11:33.094Z,18.10
2022-11-04T07:14:00.798Z,17.80
2022-11-04T07:16:28.819Z,18.50
2022-11-04T07:18:56.598Z,18.40
2022-11-04T07:21:24.388Z,19.10
2022-11-04T07:23:52.469Z,17.90
2022-11-04T07:26:20.329Z,17.30
2022-11-04T07:28:48.073Z,15.00
2022-11-04T07:31:18.170Z,14.50
2022-11-04T07:33:52.064Z,13.30
2022-11-04T07:36:21.974Z,12.80
2022-11-04T07:38:50.930Z,11.90
2022-11-04T07:41:19.607Z,12.80
2022-11-04T07:43:52.489Z,12.50
2022-11-04T07:46:21.879Z,12.50
2022-11-04T07:48:49.923Z,14.10
2022-11-04T07:51:20.466Z,13.50
2022-11-04T07:53:48.541Z,14.10
2022-11-04T07:56:18.988Z,13.60
2022-11-04T07:58:46.916Z,12.30
2022-11-04T08:01:18.641Z,13.80
2022-11-04T08:03:46.458Z,8.60
2022-11-04T08:06:17.556Z,9.80
2022-11-04T08:08:45.653Z,7.40
2022-11-04T08:11:20.876Z,6.70
2022-11-04T08:13:49.634Z,6.50
2022-11-04T08:16:23.948Z,7.20
2022-11-04T08:18:54.242Z,6.30
2022-11-04T08:21:23.248Z,5.80
2022-11-04T08:23:52.665Z,6.50
2022-11-04T08:26:24.170Z,6.30
2022-11-04T08:28:53.336Z,6.20
2022-11-04T08:31:26.118Z,6.30
2022-11-04T08:33:55.240Z,5.90
2022-11-04T08:36:28.001Z,5.70
2022-11-04T08:38:57.041Z,6.80
2022-11-04T08:41:29.423Z,6.50
2022-11-04T08:44:04.289Z,6.10
2022-11-04T08:46:36.516Z,6.00
2022-11-04T08:49:09.961Z,6.40
2022-11-04T08:51:44.794Z,6.50
2022-11-04T08:54:12.561Z,6.10
2022-11-04T08:56:41.415Z,5.80
2022-11-04T08:59:11.530Z,6.10
2022-11-04T09:01:39.434Z,6.10
2022-11-04T09:04:07.435Z,6.20
2022-11-04T09:06:39.268Z,6.60
2022-11-04T09:09:10.909Z,6.80
2022-11-04T09:11:42.773Z,6.60
2022-11-04T09:14:12.368Z,6.10
2022-11-04T09:16:42.286Z,5.80
2022-11-04T09:19:10.371Z,6.60
2022-11-04T09:21:38.244Z,5.50
2022-11-04T09:24:08.716Z,5.60
2022-11-04T09:26:38.021Z,5.80
2022-11-04T09:29:08.621Z,7.00
2022-11-04T09:31:36.872Z,6.40
2022-11-04T09:34:04.876Z,5.90
2022-11-04T09:36:33.383Z,5.50
2022-11-04T09:39:01.376Z,5.90
2022-11-04T09:41:51.588Z,5.80
2022-11-04T09:45:14.844Z,6.40
2022-11-04T09:47:36.713Z,6.00
2022-11-04T09:50:08.462Z,6.30
2022-11-04T09:52:45.534Z,6.80
2022-11-04T09:55:40.041Z,6.30
2022-11-04T09:58:13.062Z,6.40
2022-11-04T10:00:46.061Z,5.60
2022-11-04T10:03:27.520Z,6.10
2022-11-04T10:06:07.536Z,8.20
2022-11-04T10:08:41.018Z,6.80
2022-11-04T10:13:50.571Z,6.80
2022-11-04T10:16:24.009Z,7.20
2022-11-04T10:21:57.647Z,7.00
2022-11-04T10:24:35.915Z,6.40
2022-11-04T10:27:11.439Z,7.80
2022-11-04T10:30:22.065Z,6.50
2022-11-04T10:33:12.548Z,7.50
2022-11-04T10:36:04.868Z,8.90
2022-11-04T10:38:38.431Z,7.80
2022-11-04T10:41:20.322Z,8.60
2022-11-04T10:43:49.481Z,8.30
2022-11-04T10:46:30.489Z,8.00
2022-11-04T10:49:14.215Z,7.70
2022-11-04T10:51:42.799Z,6.50
2022-11-04T10:54:12.113Z,6.90
2022-11-04T10:56:48.183Z,6.60
2022-11-04T10:59:37.343Z,7.10
2022-11-04T11:02:05.158Z,6.20
2022-11-04T11:04:36.756Z,6.90
2022-11-04T11:07:09.183Z,7.90
2022-11-04T11:09:53.988Z,7.80
2022-11-04T11:12:56.574Z,7.50
2022-11-04T11:15:30.626Z,9.90
2022-11-04T11:18:07.789Z,7.80
2022-11-04T11:20:39.259Z,8.70
2022-11-04T11:23:38.526Z,7.90
2022-11-04T11:26:11.951Z,8.10
2022-11-04T11:31:17.438Z,7.50
2022-11-04T11:33:58.253Z,6.00
2022-11-04T11:36:31.658Z,6.10
2022-11-04T11:41:53.583Z,5.10
2022-11-04T11:44:39.295Z,6.60
2022-11-04T11:47:29.229Z,6.10
2022-11-04T11:50:20.947Z,5.70
2022-11-04T11:52:52.909Z,6.50
2022-11-04T11:55:24.017Z,6.00
2022-11-04T12:01:03.486Z,18.00
2022-11-04T12:10:52.398Z,8.90
2022-11-04T12:13:30.898Z,11.40
2022-11-04T12:16:16.752Z,8.00
2022-11-04T12:19:02.998Z,14.80
2022-11-04T12:21:47.404Z,9.80
2022-11-04T12:24:31.859Z,13.20
2022-11-04T12:27:15.503Z,8.70
2022-11-04T12:32:23.144Z,8.80
2022-11-04T12:34:57.179Z,8.70
2022-11-04T12:38:03.452Z,8.70
2022-11-04T12:41:46.778Z,9.00
2022-11-04T12:44:26.038Z,11.00
2022-11-04T12:47:12.733Z,8.50
2022-11-04T12:49:58.839Z,9.20
2022-11-04T12:52:26.726Z,9.90
2022-11-04T12:55:25.729Z,11.50
2022-11-04T12:58:32.261Z,10.90
2022-11-04T13:01:15.014Z,14.50
2022-11-04T13:04:08.094Z,11.40
2022-11-04T13:06:41.835Z,10.80
2022-11-04T13:09:16.994Z,13.30
2022-11-04T13:11:56.703Z,12.30
2022-11-04T13:14:33.423Z,13.90
2022-11-04T13:17:08.569Z,12.20
2022-11-04T13:19:50.410Z,10.70
2022-11-04T13:22:26.910Z,11.10
2022-11-04T13:25:07.443Z,10.10
2022-11-04T13:27:45.210Z,13.30
2022-11-04T13:30:48.288Z,8.80
2022-11-04T13:33:47.646Z,12.00
2022-11-04T13:36:44.687Z,9.10
2022-11-04T13:39:24.272Z,11.60
2022-11-04T13:42:12.417Z,11.90
2022-11-04T13:44:45.275Z,12.80
2022-11-04T13:47:22.474Z,22.80
2022-11-04T13:49:56.358Z,12.20
2022-11-04T13:55:20.497Z,11.20
2022-11-04T13:57:58.284Z,10.40
2022-11-04T14:00:31.701Z,11.40
2022-11-04T14:05:32.066Z,12.20
2022-11-04T14:08:02.703Z,13.40
2022-11-04T14:10:51.074Z,15.00
2022-11-04T14:13:29.121Z,14.60
2022-11-04T14:16:05.869Z,14.90
2022-11-04T14:18:35.821Z,15.20
2022-11-04T14:21:13.353Z,12.00
2022-11-04T14:23:49.819Z,11.20
2022-11-04T14:26:24.341Z,9.20
2022-11-04T14:29:18.225Z,10.20
2022-11-04T14:34:29.402Z,7.50
2022-11-04T14:37:06.552Z,7.80
2022-11-04T14:39:40.060Z,7.10
2022-11-04T14:44:50.390Z,7.90
2022-11-04T14:47:20.780Z,9.00
2022-11-04T14:49:52.359Z,14.80
2022-11-04T14:52:26.016Z,18.80
2022-11-04T14:55:02.134Z,19.70
2022-11-04T14:57:36.688Z,18.40
2022-11-04T15:00:29.839Z,16.90
2022-11-04T15:03:10.543Z,13.70
2022-11-04T15:06:01.415Z,13.00
2022-11-04T15:08:41.336Z,19.60
2022-11-04T15:11:40.086Z,24.30
2022-11-04T15:14:29.082Z,28.10
2022-11-04T15:17:00.257Z,35.60
2022-11-04T15:19:31.313Z,44.60
2022-11-04T15:22:02.661Z,51.60
2022-11-04T15:24:32.184Z,54.90
2022-11-04T15:27:06.064Z,56.40
2022-11-04T15:29:35.325Z,49.90
2022-11-04T15:32:05.692Z,48.20
2022-11-04T15:34:36.853Z,46.00
2022-11-04T15:37:06.556Z,46.00
2022-11-04T15:39:43.693Z,46.10
2022-11-04T15:42:41.202Z,45.80
2022-11-04T15:45:39.314Z,45.30
2022-11-04T15:48:31.745Z,45.60
2022-11-04T15:51:16.840Z,50.30
2022-11-04T15:53:48.957Z,51.20
2022-11-04T15:56:27.605Z,39.10
2022-11-04T15:58:58.929Z,49.60
2022-11-04T16:01:29.134Z,53.40
2022-11-04T16:04:03.074Z,53.90
2022-11-04T16:06:36.401Z,55.40
2022-11-04T16:09:26.588Z,59.80
2022-11-04T16:12:36.041Z,59.90
2022-11-04T16:15:05.124Z,64.40
2022-11-04T16:17:32.925Z,66.90
2022-11-04T16:20:06.400Z,63.90
2022-11-04T16:22:41.464Z,60.70
2022-11-04T16:25:22.543Z,59.30
2022-11-04T16:27:51.795Z,53.20
2022-11-04T16:30:23.448Z,47.90
2022-11-04T16:32:55.894Z,44.00
2022-11-04T16:35:28.294Z,42.80
2022-11-04T16:37:57.233Z,41.40
2022-11-04T16:40:26.269Z,39.50
2022-11-04T16:42:56.634Z,43.30
2022-11-04T16:45:34.459Z,44.40
2022-11-04T16:48:02.546Z,44.80
2022-11-04T16:50:33.038Z,44.20
2022-11-04T16:53:04.710Z,43.80
2022-11-04T16:55:33.727Z,44.40
2022-11-04T16:58:05.672Z,44.70
2022-11-04T17:00:34.663Z,46.00
2022-11-04T17:03:22.172Z,43.90
2022-11-04T17:05:55.661Z,47.10
2022-11-04T17:08:25.874Z,47.90
2022-11-04T17:10:55.301Z,53.90
2022-11-04T17:13:23.051Z,53.50
2022-11-04T17:15:50.977Z,53.60
2022-11-04T17:18:18.922Z,50.60
2022-11-04T17:20:53.590Z,48.50
2022-11-04T17:23:22.552Z,49.70
2022-11-04T17:25:52.977Z,45.40
2022-11-04T17:28:20.960Z,46.90
2022-11-04T17:30:48.933Z,45.00
2022-11-04T17:33:20.417Z,39.60
2022-11-04T17:35:51.408Z,42.30
2022-11-04T17:38:20.592Z,38.70
2022-11-04T17:41:07.034Z,41.90
2022-11-04T17:43:53.694Z,41.30
2022-11-04T17:46:35.187Z,44.40
2022-11-04T17:49:11.641Z,46.80
2022-11-04T17:51:42.727Z,49.30
2022-11-04T17:54:11.742Z,47.10
2022-11-04T17:56:41.305Z,47.10
2022-11-04T17:59:12.518Z,47.20
2022-11-04T18:01:43.774Z,50.00
2022-11-04T18:04:20.532Z,48.00
2022-11-04T18:06:50.511Z,48.10
2022-11-04T18:09:19.578Z,48.00
2022-11-04T18:12:06.519Z,52.70
2022-11-04T18:14:34.299Z,48.80
2022-11-04T18:17:03.250Z,51.40
2022-11-04T18:19:32.074Z,53.10
2022-11-04T18:22:01.887Z,59.60
2022-11-04T18:24:29.729Z,60.80
2022-11-04T18:27:01.845Z,60.70
2022-11-04T18:29:29.603Z,63.70
2022-11-04T18:31:57.412Z,49.00
2022-11-04T18:34:25.225Z,48.90
2022-11-04T18:36:53.058Z,45.40
2022-11-04T18:39:20.856Z,46.40
2022-11-04T18:41:48.575Z,51.70
2022-11-04T18:44:20.687Z,54.60
2022-11-04T18:46:49.828Z,55.80
2022-11-04T18:49:21.643Z,54.20
2022-11-04T18:51:49.432Z,55.80
2022-11-04T18:54:17.194Z,48.40
2022-11-04T18:56:46.010Z,45.80
2022-11-04T18:59:16.092Z,45.50
2022-11-04T19:01:45.870Z,47.10
2022-11-04T19:04:14.237Z,46.50
2022-11-04T19:06:45.156Z,46.20
2022-11-04T19:09:45.462Z,45.40
2022-11-04T19:12:26.820Z,45.80
2022-11-04T19:14:55.880Z,44.30
2022-11-04T19:17:25.343Z,45.30
2022-11-04T19:19:53.083Z,46.00
2022-11-04T19:22:20.879Z,47.20
2022-11-04T19:24:48.701Z,45.60
2022-11-04T19:27:18.813Z,47.10
2022-11-04T19:29:46.776Z,44.90
2022-11-04T19:32:14.783Z,43.00
2022-11-04T19:34:44.050Z,43.50
2022-11-04T19:37:11.942Z,45.10
2022-11-04T19:39:40.841Z,42.60
2022-11-04T19:42:30.503Z,44.10
2022-11-04T19:44:58.269Z,44.00
2022-11-04T19:47:27.033Z,49.70
2022-11-04T19:49:56.561Z,50.70
2022-11-04T19:52:24.417Z,50.30
2022-11-04T19:54:52.181Z,52.10
2022-11-04T19:57:19.921Z,51.70
2022-11-04T19:59:49.946Z,47.10
2022-11-04T20:02:17.953Z,45.70
2022-11-04T20:04:48.746Z,44.60
2022-11-04T20:07:17.967Z,43.30
2022-11-04T20:09:45.693Z,42.80
2022-11-04T20:12:32.082Z,43.90
2022-11-04T20:14:59.922Z,43.80
2022-11-04T20:17:27.670Z,43.30
2022-11-04T20:19:55.447Z,41.80
2022-11-04T20:22:23.208Z,43.00
2022-11-04T20:24:51.040Z,41.20
2022-11-04T20:27:20.041Z,40.50
2022-11-04T20:29:47.786Z,40.80
2022-11-04T20:32:15.514Z,42.00
2022-11-04T20:34:43.232Z,39.80
2022-11-04T20:37:13.664Z,38.40
2022-11-04T20:39:42.574Z,37.90
2022-11-04T20:42:10.362Z,38.90
2022-11-04T20:44:39.294Z,37.60
2022-11-04T20:47:07.035Z,36.80
2022-11-04T20:49:34.808Z,39.90
2022-11-04T20:52:04.351Z,38.90
2022-11-04T20:54:32.090Z,36.50
2022-11-04T20:56:59.806Z,38.70
2022-11-04T20:59:27.920Z,39.00
2022-11-04T21:01:55.857Z,37.10
2022-11-04T21:04:25.846Z,36.80
2022-11-04T21:06:54.759Z,38.70
2022-11-04T21:09:22.568Z,40.30
2022-11-04T21:11:50.466Z,41.60
2022-11-04T21:14:20.833Z,41.50
2022-11-04T21:16:48.582Z,40.60
2022-11-04T21:19:17.521Z,39.90
2022-11-04T21:21:47.733Z,39.60
2022-11-04T21:24:17.879Z,38.10
2022-11-04T21:26:46.546Z,43.20
2022-11-04T21:29:17.437Z,42.00
2022-11-04T21:31:47.060Z,38.30
2022-11-04T21:34:15.689Z,34.40
2022-11-04T21:36:43.524Z,33.50
2022-11-04T21:39:12.984Z,38.00
2022-11-04T21:41:40.681Z,37.30
2022-11-04T21:44:12.489Z,38.60
2022-11-04T21:46:41.054Z,36.60
2022-11-04T21:49:11.764Z,36.30
2022-11-04T21:51:39.765Z,35.00
2022-11-04T21:54:07.568Z,33.80
2022-11-04T21:56:36.077Z,33.80
2022-11-04T21:59:05.414Z,33.40
2022-11-04T22:01:33.947Z,32.40
2022-11-04T22:04:03.027Z,30.40
2022-11-04T22:06:35.047Z,31.30
2022-11-04T22:09:06.352Z,29.40
2022-11-04T22:11:39.660Z,30.80
2022-11-04T22:14:08.959Z,32.30
2022-11-04T22:16:39.492Z,29.80
2022-11-04T22:19:10.765Z,31.20
2022-11-04T22:21:41.388Z,31.30
2022-11-04T22:24:15.815Z,31.80
2022-11-04T22:26:44.605Z,28.80
2022-11-04T22:29:12.384Z,32.80
2022-11-04T22:31:43.309Z,45.40
2022-11-04T22:34:11.289Z,34.40
2022-11-04T22:36:40.178Z,31.40
2022-11-04T22:39:16.572Z,30.40
2022-11-04T22:41:46.792Z,30.50
2022-11-04T22:44:15.535Z,30.20
2022-11-04T22:46:43.787Z,29.50
2022-11-04T22:49:11.646Z,29.00
2022-11-04T22:51:39.341Z,29.70
2022-11-04T22:54:09.524Z,29.20
2022-11-04T22:56:38.174Z,30.50
2022-11-04T22:59:07.005Z,30.80
2022-11-04T23:01:36.151Z,31.70
2022-11-04T23:04:05.338Z,30.10
2022-11-04T23:06:33.103Z,31.10
2022-11-04T23:09:01.336Z,27.90
2022-11-04T23:11:49.734Z,31.30
2022-11-04T23:14:39.540Z,29.20
2022-11-04T23:17:40.856Z,28.40
2022-11-04T23:20:12.784Z,28.00
2022-11-04T23:22:59.528Z,29.20
2022-11-04T23:25:27.457Z,30.30
2022-11-04T23:28:25.445Z,28.00
2022-11-04T23:30:53.266Z,29.10
2022-11-04T23:33:40.939Z,27.10
2022-11-04T23:36:27.728Z,28.30
2022-11-04T23:38:55.531Z,27.00
2022-11-04T23:41:42.160Z,33.20
2022-11-04T23:44:29.903Z,30.00
2022-11-04T23:47:16.191Z,28.10
2022-11-04T23:50:02.556Z,27.50
2022-11-04T23:52:48.802Z,26.80
2022-11-04T23:55:35.244Z,26.40
2022-11-04T23:58:21.390Z,26.60
